Time;durP1;ratioP1;P1;durP2;ratioP2;P2;SDS_P1;SDS_P2;PMS_P1;PMS_P2;Temp;Humidity;BMP_temperature;BMP_pressure;BME280_temperature;BME280_humidity;BME280_pressure;Samples;Min_cycle;Max_cycle;Signal;HPM_P1;HPM_P2
2022/06/01 00:00:59;;;;;;;5.17;4.15;;;;;;;10.88;84.30;95725.77;1795409;80;21030;-65
2022/06/01 00:03:31;;;;;;;5.55;3.35;;;;;;;10.85;83.31;95729.33;1795309;80;20982;-66
2022/06/01 00:05:58;;;;;;;4.70;3.67;;;;;;;10.81;83.60;95727.66;1795553;80;21050;-65
2022/06/01 00:08:25;;;;;;;8.58;3.90;;;;;;;10.81;84.12;95728.53;1795650;80;21002;-66
2022/06/01 00:10:53;;;;;;;5.85;4.05;;;;;;;10.82;84.21;95726.75;1795066;80;21018;-66
2022/06/01 00:13:20;;;;;;;5.12;3.60;;;;;;;10.81;84.09;95729.84;1795580;80;20991;-66
2022/06/01 00:15:48;;;;;;;4.67;3.35;;;;;;;10.83;83.71;95726.73;1795106;80;21022;-66
2022/06/01 00:18:15;;;;;;;6.80;3.47;;;;;;;10.87;83.58;95733.28;1795450;80;21496;-66
2022/06/01 00:20:44;;;;;;;6.00;3.58;;;;;;;10.92;83.34;95727.47;1795557;80;21480;-66
2022/06/01 00:23:10;;;;;;;6.47;3.62;;;;;;;10.92;82.95;95730.11;1795544;80;21448;-66
2022/06/01 00:25:37;;;;;;;7.03;3.47;;;;;;;10.83;82.64;95729.38;1795249;80;21491;-65
2022/06/01 00:28:05;;;;;;;4.62;3.33;;;;;;;10.75;82.55;95725.98;1795490;80;20978;-65
2022/06/01 00:30:32;;;;;;;6.85;3.30;;;;;;;10.69;82.85;95730.05;1792921;80;21023;-65
2022/06/01 00:32:58;;;;;;;4.03;3.20;;;;;;;10.68;82.57;95733.56;1787330;80;20967;-65
2022/06/01 00:35:26;;;;;;;4.65;3.40;;;;;;;10.64;83.18;95721.34;1787048;80;20995;-65
2022/06/01 00:37:53;;;;;;;8.65;3.17;;;;;;;10.71;83.29;95724.73;1786791;80;20995;-65
2022/06/01 00:40:23;;;;;;;4.90;3.15;;;;;;;10.64;82.18;95729.72;1787106;80;20935;-65
2022/06/01 00:42:54;;;;;;;6.55;3.37;;;;;;;10.56;82.61;95722.80;1787034;80;20983;-65
2022/06/01 00:45:23;;;;;;;5.53;4.00;;;;;;;10.53;83.01;95723.27;1751394;80;21007;-65
2022/06/01 00:47:51;;;;;;;13.95;4.33;;;;;;;10.55;83.24;95719.71;1787034;80;21031;-65
2022/06/01 00:50:32;;;;;;;6.83;4.58;;;;;;;10.58;83.45;95718.79;1787046;80;21115;-66
2022/06/01 00:53:04;;;;;;;7.60;4.20;;;;;;;10.64;83.27;95718.70;1786978;80;20991;-66
2022/06/01 00:55:42;;;;;;;6.80;3.67;;;;;;;10.60;83.04;95717.00;1787039;80;21520;-66
2022/06/01 00:58:18;;;;;;;6.33;3.65;;;;;;;10.49;82.31;95711.05;1786813;80;21046;-66
2022/06/01 01:00:48;;;;;;;6.72;4.65;;;;;;;10.37;82.30;95715.61;1786169;80;21019;-66
2022/06/01 01:03:17;;;;;;;6.22;3.85;;;;;;;10.26;82.57;95710.06;1786757;80;21002;-65
2022/06/01 01:05:48;;;;;;;4.53;3.80;;;;;;;10.21;82.43;95718.50;1786914;80;21343;-65
2022/06/01 01:08:15;;;;;;;4.58;3.72;;;;;;;10.18;83.04;95716.78;1753735;80;21058;-65
2022/06/01 01:10:41;;;;;;;5.55;3.80;;;;;;;10.07;83.26;95716.91;1787130;80;21042;-65
2022/06/01 01:13:14;;;;;;;5.85;4.08;;;;;;;10.00;83.05;95714.39;1786802;80;21007;-65
2022/06/01 01:15:51;;;;;;;5.87;4.08;;;;;;;9.95;83.60;95720.62;1786959;80;20999;-65
2022/06/01 01:18:17;;;;;;;7.80;4.00;;;;;;;9.96;83.68;95717.53;1786118;80;21508;-65
2022/06/01 01:21:08;;;;;;;9.43;3.90;;;;;;;9.95;85.03;95709.17;1786872;80;21000;-65
2022/06/01 01:24:31;;;;;;;6.20;3.70;;;;;;;9.91;84.25;95713.64;1787216;80;21065;-65
2022/06/01 01:26:58;;;;;;;8.28;4.78;;;;;;;9.88;84.01;95714.14;1786910;80;21027;-66
2022/06/01 01:29:41;;;;;;;6.17;4.28;;;;;;;9.81;84.01;95712.47;1787444;80;20967;-66
2022/06/01 01:32:11;;;;;;;6.50;3.20;;;;;;;9.80;84.20;95710.71;1793197;80;21037;-66
2022/06/01 01:34:40;;;;;;;4.53;3.80;;;;;;;9.75;83.82;95710.77;1795411;80;21479;-66
2022/06/01 01:37:17;;;;;;;7.35;4.58;;;;;;;9.66;83.32;95715.73;1795558;80;21064;-66
2022/06/01 01:39:45;;;;;;;7.90;3.45;;;;;;;9.63;83.35;95714.91;1795494;80;21074;-66
2022/06/01 01:42:12;;;;;;;9.88;4.00;;;;;;;9.65;84.21;95711.78;1794721;80;21086;-65
2022/06/01 01:44:56;;;;;;;5.80;3.40;;;;;;;9.62;84.98;95707.43;1795446;80;21042;-65
2022/06/01 01:47:22;;;;;;;6.28;3.60;;;;;;;9.61;85.23;95707.47;1795687;80;20991;-65
2022/06/01 01:49:49;;;;;;;5.95;2.95;;;;;;;9.66;85.13;95705.64;1794846;80;21091;-65
2022/06/01 01:52:18;;;;;;;10.45;3.60;;;;;;;9.67;84.67;95701.66;1795361;80;20971;-65
2022/06/01 01:55:18;;;;;;;5.45;3.77;;;;;;;9.59;84.35;95699.58;1764577;80;21007;-65
2022/06/01 01:58:02;;;;;;;5.50;3.25;;;;;;;9.63;84.71;95700.42;1794204;80;21067;-65
2022/06/01 02:00:43;;;;;;;7.53;3.40;;;;;;;9.66;84.82;95701.24;1795464;80;20983;-65
2022/06/01 02:03:26;;;;;;;4.15;3.00;;;;;;;9.70;85.07;95708.23;1795575;80;21003;-66
2022/06/01 02:06:09;;;;;;;4.30;2.80;;;;;;;9.67;84.66;95703.42;1795818;80;21473;-66
2022/06/01 02:08:46;;;;;;;4.22;2.67;;;;;;;9.63;84.19;95707.02;1795323;80;21060;-66
2022/06/01 02:14:28;;;;;;;6.53;2.95;;;;;;;9.53;84.17;95708.89;1787307;80;21010;-66
2022/06/01 02:17:03;;;;;;;5.60;2.90;;;;;;;9.61;83.85;95716.69;1795077;80;20983;-66
2022/06/01 02:19:34;;;;;;;2.98;2.37;;;;;;;9.55;84.36;95711.06;1795569;80;20990;-66
2022/06/01 02:22:02;;;;;;;4.28;2.80;;;;;;;9.53;84.76;95712.39;1795701;80;21512;-66
2022/06/01 02:24:30;;;;;;;3.30;2.70;;;;;;;9.60;84.25;95714.92;1795255;80;20999;-65
2022/06/01 02:26:57;;;;;;;3.83;2.50;;;;;;;9.56;83.82;95716.74;1795639;80;21373;-65
2022/06/01 02:29:41;;;;;;;3.00;2.30;;;;;;;9.53;83.83;95718.11;1795631;80;21444;-65
2022/06/01 02:32:10;;;;;;;2.75;2.30;;;;;;;9.57;83.97;95721.56;1790150;80;21535;-65
2022/06/01 02:34:39;;;;;;;6.05;2.65;;;;;;;9.52;83.95;95721.19;1787130;80;21062;-65
2022/06/01 02:37:07;;;;;;;5.43;2.87;;;;;;;9.50;84.73;95722.10;1749583;80;21058;-65
2022/06/01 02:39:38;;;;;;;4.55;3.30;;;;;;;9.61;85.06;95718.01;1787192;80;20936;-65
2022/06/01 02:42:26;;;;;;;5.37;3.12;;;;;;;9.74;85.05;95715.17;1787228;80;21026;-65
2022/06/01 02:45:00;;;;;;;3.90;2.97;;;;;;;9.89;84.83;95702.23;1787008;80;20968;-65
2022/06/01 02:47:32;;;;;;;3.27;2.42;;;;;;;9.97;83.61;95707.40;1785903;80;21599;-65
2022/06/01 02:50:00;;;;;;;3.70;2.02;;;;;;;9.94;83.40;95708.77;1787300;80;21500;-66
2022/06/01 02:52:28;;;;;;;2.67;2.15;;;;;;;9.88;83.10;95708.87;1787032;80;20999;-66
2022/06/01 02:54:54;;;;;;;4.12;3.30;;;;;;;9.81;83.71;95711.16;1787562;80;21022;-66
2022/06/01 02:57:22;;;;;;;3.45;2.60;;;;;;;9.83;83.59;95714.20;1787211;80;20981;-66
2022/06/01 02:59:49;;;;;;;4.97;2.60;;;;;;;9.85;83.39;95715.05;1787047;80;20983;-66
2022/06/01 03:02:17;;;;;;;5.10;2.60;;;;;;;9.92;83.55;95718.00;1786981;80;21442;-66
2022/06/01 03:04:44;;;;;;;4.40;2.20;;;;;;;9.91;83.36;95719.36;1786980;80;21042;-66
2022/06/01 03:07:13;;;;;;;4.53;2.27;;;;;;;9.92;83.20;95721.95;1787266;80;21019;-65
2022/06/01 03:09:40;;;;;;;5.37;2.55;;;;;;;9.86;82.87;95719.42;1787142;80;20983;-65
2022/06/01 03:12:09;;;;;;;3.92;2.47;;;;;;;9.83;83.44;95714.66;1786723;80;21091;-65
2022/06/01 03:14:37;;;;;;;3.92;2.52;;;;;;;9.89;83.60;95716.73;1787267;80;21039;-65
2022/06/01 03:17:07;;;;;;;6.42;2.90;;;;;;;9.95;83.66;95707.44;1787213;80;21003;-66
2022/06/01 03:19:34;;;;;;;4.65;3.05;;;;;;;9.95;82.99;95710.50;1787028;80;21473;-65
2022/06/01 03:22:01;;;;;;;6.55;4.12;;;;;;;9.87;83.18;95717.65;1787403;80;21018;-66
2022/06/01 03:24:28;;;;;;;5.00;3.72;;;;;;;9.85;83.54;95717.69;1786862;80;21019;-66
2022/06/01 03:26:55;;;;;;;6.25;3.58;;;;;;;9.88;84.06;95716.77;1787264;80;20999;-66
2022/06/01 03:29:24;;;;;;;11.48;6.70;;;;;;;9.94;84.13;95710.95;1787293;80;21047;-66
2022/06/01 03:31:52;;;;;;;8.13;4.20;;;;;;;9.96;83.98;95713.12;1787032;80;21012;-64
2022/06/01 03:34:19;;;;;;;4.42;3.65;;;;;;;10.04;84.43;95710.83;1787097;80;20991;-64
2022/06/01 03:36:46;;;;;;;6.15;5.03;;;;;;;10.11;84.87;95722.58;1787205;80;20973;-64
2022/06/01 03:39:12;;;;;;;5.10;4.05;;;;;;;10.17;84.88;95717.20;1787361;80;20959;-64
2022/06/01 03:41:39;;;;;;;5.67;3.72;;;;;;;10.24;84.59;95715.80;1787050;80;20983;-64
2022/06/01 03:46:52;;;;;;;4.83;4.10;;;;;;;10.37;84.43;95723.52;1786736;80;21066;-65
2022/06/01 03:49:20;;;;;;;5.08;4.35;;;;;;;10.37;84.84;95718.70;1786838;80;21087;-65
2022/06/01 03:51:47;;;;;;;4.87;4.22;;;;;;;10.42;85.23;95725.23;1787302;80;21508;-65
2022/06/01 03:54:15;;;;;;;9.78;4.28;;;;;;;10.47;84.91;95723.38;1786834;80;20994;-65
2022/06/01 03:56:43;;;;;;;5.62;4.65;;;;;;;10.49;85.00;95722.47;1787119;80;20979;-65
2022/06/01 03:59:10;;;;;;;6.60;4.25;;;;;;;10.57;85.24;95713.10;1787052;80;21086;-65
2022/06/01 04:01:36;;;;;;;9.18;4.28;;;;;;;10.65;85.47;95715.61;1787081;80;20978;-66
2022/06/01 04:04:03;;;;;;;5.65;4.65;;;;;;;10.71;85.37;95715.07;1787394;80;20983;-66
2022/06/01 04:06:30;;;;;;;5.08;4.15;;;;;;;10.82;85.25;95713.55;1787394;80;21002;-66
2022/06/01 04:08:57;;;;;;;5.00;4.42;;;;;;;10.94;85.18;95709.38;1786828;80;21003;-66
2022/06/01 04:11:24;;;;;;;7.47;4.10;;;;;;;11.06;84.93;95709.58;1787176;80;21472;-66
2022/06/01 04:13:51;;;;;;;6.97;4.08;;;;;;;11.16;84.83;95709.86;1787240;80;21003;-66
2022/06/01 04:16:19;;;;;;;5.35;3.70;;;;;;;11.26;84.91;95700.86;1786865;80;21043;-66
2022/06/01 04:18:47;;;;;;;4.45;3.47;;;;;;;11.40;84.69;95697.93;1787044;80;21509;-66
2022/06/01 04:21:17;;;;;;;6.05;3.80;;;;;;;11.52;84.31;95697.27;1786927;80;21079;-66
2022/06/01 04:23:44;;;;;;;4.28;3.47;;;;;;;11.66;84.50;95695.19;1787021;80;20982;-66
2022/06/01 04:26:16;;;;;;;6.95;3.08;;;;;;;11.81;84.31;95693.54;1787204;80;21019;-65
2022/06/01 04:28:39;;;;;;;3.95;3.05;;;;;;;11.95;84.05;95687.13;1786275;80;21011;-65
2022/06/01 04:31:06;;;;;;;4.85;3.02;;;;;;;12.08;83.94;95692.55;1787025;80;21027;-65
2022/06/01 04:33:33;;;;;;;5.62;3.15;;;;;;;12.25;83.62;95694.81;1793774;80;21117;-66
2022/06/01 04:35:59;;;;;;;5.80;3.50;;;;;;;12.36;83.58;95683.52;1795280;80;20995;-65
2022/06/01 04:38:26;;;;;;;7.10;3.37;;;;;;;12.53;83.56;95685.30;1795538;80;20983;-66
2022/06/01 04:40:53;;;;;;;8.78;5.30;;;;;;;12.67;83.08;95678.31;1795129;80;21074;-66
2022/06/01 04:43:22;;;;;;;6.05;3.65;;;;;;;12.83;83.28;95675.30;1795705;80;20967;-66
2022/06/01 04:45:54;;;;;;;3.72;2.70;;;;;;;12.95;81.62;95681.57;1795332;80;21468;-66
2022/06/01 04:48:22;;;;;;;5.55;3.10;;;;;;;13.02;81.63;95675.20;1795395;80;21039;-65
2022/06/01 04:50:50;;;;;;;3.58;2.80;;;;;;;13.12;81.70;95670.07;1795303;80;21002;-66
2022/06/01 04:53:18;;;;;;;5.03;2.70;;;;;;;13.21;81.18;95673.80;1795526;80;21006;-66
2022/06/01 04:55:46;;;;;;;2.95;2.65;;;;;;;13.37;81.34;95672.95;1795106;80;21053;-66
2022/06/01 04:58:14;;;;;;;6.00;2.77;;;;;;;13.49;80.66;95673.52;1795300;80;21464;-66
2022/06/01 05:00:42;;;;;;;4.90;2.83;;;;;;;13.63;81.09;95673.97;1795473;80;20998;-66
2022/06/01 05:03:10;;;;;;;5.17;2.58;;;;;;;13.81;81.19;95671.27;1795290;80;21497;-66
2022/06/01 05:05:39;;;;;;;5.53;2.83;;;;;;;13.91;80.38;95676.70;1795438;80;20994;-66
2022/06/01 05:08:12;;;;;;;4.03;3.20;;;;;;;14.04;79.87;95671.88;1795445;80;21022;-65
2022/06/01 05:10:39;;;;;;;4.28;3.33;;;;;;;14.12;79.14;95674.30;1795571;80;21459;-65
2022/06/01 05:13:07;;;;;;;5.92;3.65;;;;;;;14.17;78.68;95682.52;1764334;80;21026;-65
2022/06/01 05:15:34;;;;;;;7.45;3.35;;;;;;;14.22;78.91;95675.75;1795653;80;20995;-66
2022/06/01 05:18:01;;;;;;;6.80;3.80;;;;;;;14.25;78.82;95675.64;1795288;80;20942;-65
2022/06/01 05:20:27;;;;;;;4.00;3.62;;;;;;;14.36;79.23;95671.31;1795269;80;21082;-66
2022/06/01 05:22:54;;;;;;;4.78;3.60;;;;;;;14.41;78.82;95678.23;1795697;80;21010;-66
2022/06/01 05:25:21;;;;;;;4.85;3.42;;;;;;;14.45;78.64;95677.19;1795456;80;21009;-66
2022/06/01 05:27:48;;;;;;;5.22;3.90;;;;;;;14.55;78.60;95679.13;1795279;80;21010;-66
2022/06/01 05:30:15;;;;;;;5.08;3.70;;;;;;;14.65;78.85;95673.92;1795524;80;21035;-66
2022/06/01 05:32:41;;;;;;;4.15;3.17;;;;;;;14.76;78.55;95668.70;1795335;80;21038;-66
2022/06/01 05:35:09;;;;;;;5.75;3.70;;;;;;;14.81;78.11;95670.75;1795422;80;21002;-66
2022/06/01 05:37:36;;;;;;;4.05;3.65;;;;;;;14.88;77.29;95674.94;1795700;80;21425;-66
2022/06/01 05:40:05;;;;;;;5.25;3.62;;;;;;;14.98;77.53;95678.15;1795210;80;21513;-66
2022/06/01 05:42:31;;;;;;;8.73;3.58;;;;;;;15.11;77.66;95678.98;1795568;80;21010;-66
2022/06/01 05:44:58;;;;;;;4.17;3.37;;;;;;;15.33;76.68;95682.23;1795321;80;21014;-66
2022/06/01 05:47:25;;;;;;;6.92;3.55;;;;;;;15.53;77.04;95685.03;1795333;80;21018;-65
2022/06/01 05:49:52;;;;;;;6.97;3.60;;;;;;;15.53;77.04;95685.03;1795518;80;20995;-64
2022/06/01 05:52:18;;;;;;;5.90;3.77;;;;;;;15.72;76.84;95679.94;1795108;80;21129;-64
2022/06/01 05:54:46;;;;;;;4.60;3.37;;;;;;;15.92;76.87;95677.83;1795429;80;20998;-66
2022/06/01 05:57:14;;;;;;;7.42;3.25;;;;;;;16.07;76.41;95681.70;1795399;80;20998;-65
2022/06/01 05:59:41;;;;;;;10.90;3.72;;;;;;;16.05;75.41;95686.67;1795300;80;20983;-66
2022/06/01 06:02:08;;;;;;;6.20;3.33;;;;;;;16.05;75.90;95681.36;1794770;80;21026;-66
2022/06/01 06:04:35;;;;;;;4.22;3.10;;;;;;;16.08;76.12;95675.94;1795425;80;21054;-66
2022/06/01 06:07:02;;;;;;;5.45;2.72;;;;;;;16.14;76.25;95685.00;1795146;80;21074;-66
2022/06/01 06:09:28;;;;;;;4.60;2.77;;;;;;;16.21;76.96;95678.05;1795477;80;20998;-66
2022/06/01 06:11:55;;;;;;;6.40;3.02;;;;;;;16.39;77.16;95677.77;1795476;80;21401;-66
2022/06/01 06:14:22;;;;;;;5.12;2.92;;;;;;;16.63;76.42;95683.03;1795246;80;21442;-66
2022/06/01 06:16:49;;;;;;;4.70;3.20;;;;;;;16.86;76.62;95677.66;1795179;80;21026;-66
2022/06/01 06:19:19;;;;;;;7.20;3.47;;;;;;;17.09;75.09;95681.16;1795173;80;21019;-66
2022/06/01 06:21:47;;;;;;;5.53;3.37;;;;;;;17.26;74.11;95677.30;1795127;80;21041;-66
2022/06/01 06:24:18;;;;;;;4.67;3.40;;;;;;;17.46;73.66;95675.09;1795501;80;21408;-66
2022/06/01 06:26:46;;;;;;;5.95;3.60;;;;;;;17.58;71.71;95679.00;1795464;80;21014;-66
2022/06/01 06:29:16;;;;;;;7.22;3.85;;;;;;;17.77;71.25;95675.52;1795245;80;20980;-65
2022/06/01 06:31:43;;;;;;;6.25;3.95;;;;;;;17.97;71.41;95682.17;1795146;80;20987;-66
2022/06/01 06:34:10;;;;;;;4.87;4.12;;;;;;;18.09;70.57;95682.94;1788216;80;21007;-66
2022/06/01 06:36:36;;;;;;;6.87;4.75;;;;;;;18.24;70.78;95683.14;1787041;80;20977;-66
2022/06/01 06:39:03;;;;;;;7.12;4.10;;;;;;;18.38;69.64;95675.34;1787143;80;21014;-66
2022/06/01 06:41:30;;;;;;;6.95;4.10;;;;;;;18.50;68.22;95677.91;1786792;80;21576;-66
2022/06/01 06:43:58;;;;;;;11.10;4.65;;;;;;;18.63;67.62;95680.84;1786803;80;20969;-66
2022/06/01 06:46:24;;;;;;;9.58;4.90;;;;;;;18.80;68.87;95676.91;1786975;80;20995;-66
2022/06/01 06:48:52;;;;;;;7.12;5.30;;;;;;;18.93;66.91;95675.81;1787167;80;21063;-66
2022/06/01 06:51:20;;;;;;;6.00;4.42;;;;;;;18.94;67.96;95672.19;1787210;80;21007;-66
2022/06/01 06:53:48;;;;;;;8.65;5.33;;;;;;;19.00;68.92;95678.11;1787170;80;20987;-66
2022/06/01 06:56:19;;;;;;;6.95;4.62;;;;;;;19.14;68.38;95679.20;1787237;80;21011;-66
2022/06/01 06:58:46;;;;;;;10.03;5.10;;;;;;;19.26;67.25;95683.93;1787250;80;21054;-66
2022/06/01 07:01:13;;;;;;;6.22;4.62;;;;;;;19.32;67.49;95678.25;1787246;80;21007;-66
2022/06/01 07:03:40;;;;;;;8.68;5.40;;;;;;;19.38;67.75;95681.11;1786996;80;20999;-66
2022/06/01 07:06:09;;;;;;;10.50;4.80;;;;;;;19.47;67.05;95684.62;1787217;80;20991;-66
2022/06/01 07:08:39;;;;;;;6.95;4.40;;;;;;;19.61;66.96;95680.75;1787346;80;21038;-65
2022/06/01 07:11:06;;;;;;;9.73;5.25;;;;;;;19.72;66.96;95674.86;1786997;80;21051;-66
2022/06/01 07:13:33;;;;;;;6.47;4.97;;;;;;;19.89;67.67;95676.16;1787313;80;20999;-65
2022/06/01 07:16:08;;;;;;;8.65;5.17;;;;;;;19.96;65.58;95676.70;1787059;80;21015;-66
2022/06/01 07:18:38;;;;;;;7.70;4.80;;;;;;;20.06;66.51;95678.41;1787052;80;20983;-66
2022/06/01 07:21:05;;;;;;;8.25;5.22;;;;;;;20.06;64.71;95679.75;1787176;80;21030;-66
2022/06/01 07:23:32;;;;;;;7.35;5.15;;;;;;;20.15;65.68;95683.23;1787409;80;21000;-66
2022/06/01 07:25:59;;;;;;;6.53;5.37;;;;;;;20.42;66.69;95681.33;1787128;80;21022;-66
2022/06/01 07:28:26;;;;;;;7.97;5.20;;;;;;;20.66;63.99;95688.03;1787304;80;20984;-66
2022/06/01 07:30:59;;;;;;;8.00;5.50;;;;;;;20.83;64.38;95682.16;1787006;80;21000;-66
2022/06/01 07:33:29;;;;;;;8.55;4.80;;;;;;;21.08;64.89;95681.59;1787043;80;21090;-66
2022/06/01 07:35:58;;;;;;;6.03;4.50;;;;;;;21.24;61.01;95681.55;1787309;80;20991;-66
2022/06/01 07:44:00;;;;;;;9.65;4.75;;;;;;;21.67;59.10;95679.88;1787326;80;20979;-66
2022/06/01 07:46:27;;;;;;;8.05;5.00;;;;;;;21.88;60.73;95676.34;1749408;80;21361;-66
2022/06/01 07:48:54;;;;;;;5.53;4.42;;;;;;;22.10;61.01;95678.56;1787160;80;20999;-66
2022/06/01 07:51:20;;;;;;;5.42;4.70;;;;;;;22.15;61.16;95676.91;1786998;80;21026;-66
2022/06/01 07:53:47;;;;;;;6.72;4.55;;;;;;;22.16;60.96;95679.99;1787079;80;20959;-66
2022/06/01 07:56:14;;;;;;;10.53;5.08;;;;;;;22.05;60.00;95677.99;1787276;80;20967;-66
2022/06/01 07:58:40;;;;;;;5.95;4.83;;;;;;;22.03;61.05;95681.25;1787159;80;21042;-66
2022/06/01 08:01:07;;;;;;;8.90;4.90;;;;;;;21.92;60.21;95677.86;1787060;80;20991;-65
2022/06/01 08:03:35;;;;;;;9.55;4.83;;;;;;;21.75;61.35;95677.59;1786674;80;21576;-66
2022/06/01 08:06:02;;;;;;;6.03;5.05;;;;;;;21.54;61.62;95678.87;1787370;80;21003;-66
2022/06/01 08:08:29;;;;;;;7.17;4.90;;;;;;;21.61;61.53;95678.41;1786574;80;21030;-66
2022/06/01 08:10:59;;;;;;;6.97;4.30;;;;;;;21.70;61.24;95678.83;1787074;80;20952;-66
2022/06/01 08:13:25;;;;;;;6.55;4.60;;;;;;;21.85;61.54;95676.55;1787245;80;20972;-65
2022/06/01 08:15:54;;;;;;;4.85;4.12;;;;;;;21.99;61.41;95683.24;1787247;80;21476;-66
2022/06/01 08:18:24;;;;;;;6.90;4.28;;;;;;;22.17;60.81;95681.70;1786816;80;21027;-66
2022/06/01 08:20:52;;;;;;;7.53;4.70;;;;;;;22.23;60.21;95689.44;1786989;80;20995;-66
2022/06/01 08:23:25;;;;;;;9.53;5.00;;;;;;;22.39;61.09;95682.59;1787015;80;21521;-66
2022/06/01 08:25:52;;;;;;;4.75;3.70;;;;;;;22.62;62.02;95687.34;1787131;80;21010;-66
2022/06/01 08:28:20;;;;;;;6.70;3.83;;;;;;;22.85;58.77;95689.02;1786890;80;21023;-66
2022/06/01 08:30:48;;;;;;;3.67;3.27;;;;;;;23.09;57.53;95682.54;1787083;80;21485;-66
2022/06/01 08:33:16;;;;;;;4.12;3.47;;;;;;;23.22;53.20;95692.85;1788710;80;21069;-66
2022/06/01 08:35:47;;;;;;;6.87;3.83;;;;;;;23.17;52.34;95692.30;1795308;80;21472;-66
2022/06/01 08:38:15;;;;;;;6.80;3.37;;;;;;;23.17;52.16;95694.99;1795524;80;20994;-66
2022/06/01 08:40:56;;;;;;;4.05;3.65;;;;;;;23.37;52.18;95701.73;1795199;80;21010;-66
2022/06/01 08:43:26;;;;;;;4.58;3.70;;;;;;;23.45;52.79;95696.68;1779412;80;21058;-67
2022/06/01 08:46:00;;;;;;;5.72;3.50;;;;;;;23.65;50.03;95699.84;1764302;81;20986;-66
2022/06/01 08:48:40;;;;;;;6.83;3.45;;;;;;;23.88;51.56;95695.59;1763887;81;21056;-66
2022/06/01 08:51:08;;;;;;;5.58;3.35;;;;;;;23.86;51.57;95694.34;1764140;81;21492;-67
2022/06/01 08:53:36;;;;;;;4.90;3.50;;;;;;;24.02;51.77;95697.34;1764042;81;20977;-66
2022/06/01 08:56:13;;;;;;;6.08;3.27;;;;;;;24.06;50.62;95695.63;1763982;81;21002;-66
2022/06/01 08:58:51;;;;;;;5.90;3.58;;;;;;;23.94;49.98;95697.38;1763172;81;21496;-66
2022/06/01 09:01:38;;;;;;;5.65;3.45;;;;;;;23.98;50.81;95706.10;1763976;81;21041;-66
2022/06/01 09:04:37;;;;;;;5.22;3.37;;;;;;;23.96;50.03;95700.84;1764005;81;21493;-66
2022/06/01 09:07:31;;;;;;;5.67;3.90;;;;;;;23.97;52.05;95703.90;1758851;81;21057;-66
2022/06/01 09:10:24;;;;;;;7.22;3.70;;;;;;;23.90;51.48;95713.87;1764070;81;21512;-66
2022/06/01 09:12:59;;;;;;;6.97;3.75;;;;;;;23.65;52.22;95707.44;1795485;80;21010;-66
2022/06/01 09:15:30;;;;;;;6.17;4.22;;;;;;;23.44;52.32;95711.61;1763423;81;21018;-66
2022/06/01 09:17:59;;;;;;;6.35;3.90;;;;;;;23.40;52.54;95714.98;1801933;79;20998;-66
2022/06/01 09:23:15;;;;;;;4.58;4.05;;;;;;;23.23;52.56;95718.80;1762052;81;21508;-66
2022/06/01 09:25:53;;;;;;;6.47;3.90;;;;;;;23.01;52.87;95724.76;1761873;81;21018;-66
2022/06/01 09:28:24;;;;;;;8.08;4.33;;;;;;;22.78;51.95;95724.89;1762008;81;21017;-66
2022/06/01 09:31:02;;;;;;;4.10;3.08;;;;;;;22.55;53.22;95736.24;1761975;81;20985;-66
2022/06/01 09:33:37;;;;;;;3.90;3.42;;;;;;;22.28;52.50;95738.39;1734647;81;21068;-66
2022/06/01 09:36:12;;;;;;;6.87;3.55;;;;;;;22.15;53.51;95738.26;1764690;81;21033;-65
2022/06/01 09:38:51;;;;;;;5.72;3.20;;;;;;;22.10;53.48;95734.11;1764460;81;21128;-65
2022/06/01 09:41:31;;;;;;;4.05;3.45;;;;;;;22.09;54.01;95737.28;1764132;81;21024;-65
2022/06/01 09:44:02;;;;;;;8.45;3.83;;;;;;;22.12;54.37;95734.39;1765004;81;21094;-65
2022/06/01 09:46:36;;;;;;;6.25;3.70;;;;;;;22.17;53.90;95743.03;1764787;81;20997;-65
2022/06/01 09:49:21;;;;;;;6.03;3.92;;;;;;;22.14;53.03;95742.38;1761727;81;21012;-65
2022/06/01 09:52:02;;;;;;;5.28;3.90;;;;;;;22.18;53.42;95738.55;1764741;81;21006;-66
2022/06/01 09:54:33;;;;;;;4.08;3.60;;;;;;;22.21;53.68;95739.73;1764676;81;21551;-66
2022/06/01 09:57:33;;;;;;;6.87;3.72;;;;;;;22.32;53.54;95737.70;1764958;81;20934;-66
2022/06/01 10:08:29;;;;;;;7.35;4.22;;;;;;;22.92;53.26;95738.77;1764899;81;21036;-65
2022/06/01 10:11:06;;;;;;;5.28;4.22;;;;;;;23.00;53.35;95732.43;1765037;81;21069;-65
2022/06/01 10:13:41;;;;;;;8.15;3.90;;;;;;;23.09;53.05;95729.64;1764958;81;21450;-65
2022/06/01 10:16:31;;;;;;;9.78;4.78;;;;;;;23.21;53.76;95727.94;1765157;81;21052;-65
2022/06/01 10:19:02;;;;;;;6.80;4.33;;;;;;;23.33;53.50;95723.08;1765177;81;20990;-65
2022/06/01 10:21:37;;;;;;;4.65;3.40;;;;;;;23.65;51.54;95721.40;1765053;81;21499;-65
2022/06/01 10:24:08;;;;;;;7.90;3.90;;;;;;;23.97;49.88;95716.03;1756417;81;20994;-66
2022/06/01 10:26:39;;;;;;;6.10;3.75;;;;;;;24.23;50.14;95717.37;1765181;81;21579;-66
2022/06/01 10:29:18;;;;;;;5.78;3.52;;;;;;;24.32;50.67;95711.33;1765054;81;21033;-66
2022/06/01 10:31:54;;;;;;;4.78;3.22;;;;;;;24.57;47.62;95709.61;1765358;81;20993;-66
2022/06/01 10:34:31;;;;;;;3.90;3.50;;;;;;;24.87;48.38;95705.62;1764093;81;21089;-66
2022/06/01 10:37:39;;;;;;;5.60;3.85;;;;;;;25.08;48.50;95712.15;1765787;81;21021;-66
2022/06/01 10:40:23;;;;;;;6.47;3.70;;;;;;;24.86;45.95;95710.16;1765758;81;21029;-66
2022/06/01 10:43:16;;;;;;;5.42;3.92;;;;;;;25.20;48.60;95703.17;1764445;81;21064;-66
2022/06/01 10:46:00;;;;;;;5.80;3.33;;;;;;;25.23;47.20;95701.58;1765419;81;21523;-66
2022/06/01 10:48:38;;;;;;;7.28;3.92;;;;;;;24.91;47.00;95706.64;1765216;81;21507;-66
2022/06/01 10:51:15;;;;;;;6.67;3.62;;;;;;;24.69;48.41;95711.39;1765694;81;20990;-65
2022/06/01 10:53:59;;;;;;;7.87;3.83;;;;;;;24.63;48.73;95714.55;1765603;81;20978;-66
2022/06/01 10:56:27;;;;;;;6.15;3.77;;;;;;;24.65;48.01;95718.00;1753742;81;21037;-68
2022/06/01 10:59:00;;;;;;;6.60;3.95;;;;;;;24.32;47.61;95724.81;1765680;81;21005;-66
2022/06/01 11:01:52;;;;;;;7.80;4.30;;;;;;;24.53;49.35;95721.58;1765830;81;21523;-66
2022/06/01 11:04:40;;;;;;;;;;;;;;;24.98;51.02;95714.66;1768496;81;20978;-66
2022/06/01 11:07:52;;;;;;;4.58;3.77;;;;;;;25.22;47.87;95712.02;1765202;81;20096;-66
2022/06/01 11:10:45;;;;;;;6.78;3.20;;;;;;;25.13;48.64;95714.52;1765443;81;20986;-66
2022/06/01 11:13:37;;;;;;;;;;;;;;;24.96;47.84;95717.10;1768011;81;21026;-67
2022/06/01 11:16:22;;;;;;;4.90;3.80;;;;;;;24.96;48.50;95712.56;1765524;81;20394;-64
2022/06/01 11:19:06;;;;;;;28.90;4.50;;;;;;;25.11;49.83;95705.66;1764311;81;21057;-64
2022/06/01 11:21:58;;;;;;;8.98;4.12;;;;;;;25.28;47.64;95706.64;1765585;81;20970;-64
2022/06/01 11:24:50;;;;;;;7.25;3.80;;;;;;;25.52;45.52;95707.10;1765384;81;21017;-64
2022/06/01 11:27:39;;;;;;;9.50;3.60;;;;;;;25.57;46.92;95707.61;1738216;81;21554;-64
2022/06/01 11:30:19;;;;;;;11.20;4.03;;;;;;;25.31;47.25;95703.70;1765685;81;21479;-64
2022/06/01 11:32:54;;;;;;;5.60;4.00;;;;;;;25.19;48.12;95707.32;1765756;81;21009;-64
2022/06/01 11:35:47;;;;;;;6.00;3.77;;;;;;;25.03;47.67;95708.93;1761014;81;20978;-64
2022/06/01 11:38:19;;;;;;;4.53;3.77;;;;;;;24.83;46.53;95709.91;1738350;82;21488;-64
2022/06/01 11:40:53;;;;;;;5.37;4.00;;;;;;;24.68;49.08;95708.33;1768798;81;21006;-64
2022/06/01 11:43:37;;;;;;;6.37;4.22;;;;;;;24.55;51.15;95709.70;1787389;80;21600;-64
2022/06/01 11:46:27;;;;;;;8.03;4.30;;;;;;;24.44;52.11;95715.45;1754908;82;21030;-64
2022/06/01 11:48:59;;;;;;;5.60;4.00;;;;;;;24.24;53.54;95716.87;1785599;80;21026;-64
2022/06/01 11:51:40;;;;;;;7.12;3.85;;;;;;;24.05;54.71;95711.94;1755069;82;21460;-64
2022/06/01 11:54:27;;;;;;;5.20;4.28;;;;;;;23.96;53.56;95709.38;1786841;80;21018;-64
2022/06/01 11:57:28;;;;;;;5.90;4.20;;;;;;;23.99;53.93;95702.45;1760171;81;21066;-64
2022/06/01 12:00:19;;;;;;;7.28;4.08;;;;;;;24.18;54.62;95697.96;1785227;80;21015;-64
2022/06/01 12:02:50;;;;;;;5.65;4.42;;;;;;;24.38;50.74;95692.49;1760294;81;21474;-64
2022/06/01 12:05:32;;;;;;;4.60;4.05;;;;;;;24.86;50.68;95689.92;1787181;80;21023;-65
2022/06/01 12:08:08;;;;;;;;;;;;;;;24.89;50.05;95688.34;1762965;81;21444;-64
2022/06/01 12:11:03;;;;;;;4.30;3.60;;;;;;;24.95;50.99;95682.51;1730321;81;20114;-64
2022/06/01 12:13:38;;;;;;;6.65;4.25;;;;;;;25.01;49.88;95678.48;1787721;80;20982;-64
2022/06/01 12:16:25;;;;;;;5.15;3.95;;;;;;;24.94;50.20;95688.01;1753014;82;21066;-64
2022/06/01 12:19:19;;;;;;;4.40;3.92;;;;;;;24.93;50.53;95689.84;1782777;80;20998;-64
2022/06/01 12:22:00;;;;;;;5.22;3.85;;;;;;;24.85;51.21;95688.21;1752171;81;21011;-64
2022/06/01 12:30:21;;;;;;;4.87;4.10;;;;;;;24.50;50.33;95684.91;1768413;81;21022;-64